.
WxDataArchive / Data Records for 2011-10-24
2011-10-23 October 2011 2011-10-25

Data Records for Monday, 24 October 2011

Time	Temp	Chill	HIndex	Humid	Dewpt	 Wind 	HiWind	WindDir	Rain 	Barom 
-----	----	-----	------	-----	-----	------	------	-------	-----	----- 
00:00	54.7	54.7	54.7	79	48.3	0	3	248	0.00	29.931 
00:05	54.7	54.7	54.7	79	48.3	0	2	248	0.00	29.931 
00:10	54.5	54.5	54.5	80	48.5	0	5	248	0.00	29.931 
00:15	54.5	54.5	54.5	79	48.1	0	5	248	0.00	29.920 
00:20	54.5	54.5	54.5	80	48.5	1	5	248	0.00	29.920 
00:25	54.5	54.5	54.5	80	48.5	1	4	248	0.00	29.920 
00:30	54.5	54.5	54.5	79	48.1	1	5	270	0.00	29.916 
00:35	54.5	54.5	54.5	79	48.1	0	2	248	0.00	29.916 
00:40	54.5	54.5	54.5	79	48.1	0	3	248	0.00	29.916 
00:45	54.5	54.5	54.5	79	48.1	1	5	248	0.00	29.914 
00:50	54.5	54.5	54.5	79	48.1	1	3	248	0.00	29.914 
00:55	54.7	54.7	54.7	79	48.3	1	6	248	0.00	29.914 
01:00	54.7	54.7	54.7	78	48.0	1	6	248	0.00	29.912 
01:05	54.8	54.8	54.8	78	48.1	1	4	248	0.00	29.912 
01:10	54.8	54.8	54.8	78	48.1	0	2	248	0.00	29.912 
01:15	54.7	54.7	54.7	78	48.0	0	3	248	0.00	29.909 
01:20	54.7	54.7	54.7	78	48.0	0	4	248	0.00	29.909 
01:25	54.5	54.5	54.5	78	47.8	1	3	248	0.00	29.909 
01:30	54.5	54.5	54.5	78	47.8	0	3	225	0.00	29.907 
01:35	54.5	54.5	54.5	78	47.8	0	3	225	0.00	29.907 
01:40	54.5	54.5	54.5	78	47.8	0	3	248	0.00	29.907 
01:45	54.4	54.4	54.4	79	48.0	1	4	270	0.00	29.904 
01:50	54.4	54.4	54.4	79	48.0	0	2	338	0.00	29.904 
01:55	54.2	54.2	54.2	79	47.8	0	4	248	0.00	29.904 
02:00	54.1	54.1	54.1	79	47.7	0	1	248	0.00	29.901 
02:05	53.9	53.9	53.9	79	47.5	0	2	248	0.00	29.901 
02:10	53.9	53.9	53.9	80	47.9	0	2	248	0.00	29.901 
02:15	53.8	53.8	53.8	80	47.8	0	2	315	0.00	29.895 
02:20	53.6	53.6	53.6	80	47.6	0	3	315	0.00	29.895 
02:25	53.6	53.6	53.6	80	47.6	0	3	248	0.00	29.895 
02:30	53.6	53.6	53.6	80	47.6	1	4	248	0.00	29.890 
02:35	53.5	53.5	53.5	80	47.5	0	1	248	0.00	29.890 
02:40	53.5	53.5	53.5	81	47.8	0	3	248	0.00	29.890 
02:45	53.5	53.5	53.5	81	47.8	1	3	248	0.00	29.885 
02:50	53.5	53.5	53.5	80	47.5	0	4	248	0.00	29.885 
02:55	53.5	53.5	53.5	80	47.5	0	2	248	0.00	29.885 
03:00	53.5	53.5	53.5	80	47.5	0	5	270	0.00	29.879 
03:05	53.6	53.6	53.6	80	47.6	1	4	248	0.00	29.879 
03:10	53.6	53.6	53.6	80	47.6	0	3	248	0.00	29.879 
03:15	53.8	53.8	53.8	79	47.4	1	2	248	0.00	29.878 
03:20	53.8	53.8	53.8	79	47.4	1	4	225	0.00	29.878 
03:25	53.9	53.9	53.9	79	47.5	1	3	248	0.00	29.878 
03:30	53.9	53.9	53.9	78	47.2	1	4	315	0.00	29.880 
03:35	54.1	54.1	54.1	78	47.4	0	3	270	0.00	29.880 
03:40	54.1	54.1	54.1	78	47.4	0	2	270	0.00	29.880 
03:45	54.2	54.2	54.2	78	47.5	1	3	292	0.00	29.879 
03:50	54.4	54.4	54.4	77	47.3	1	3	270	0.00	29.879 
03:55	54.8	54.8	54.8	77	47.7	4	11	315	0.00	29.879 
04:00	55.3	55.3	55.3	77	48.2	4	11	315	0.00	29.924 
04:05	55.6	55.6	55.6	76	48.2	2	7	292	0.00	29.924 
04:10	55.6	55.6	55.6	73	47.1	4	12	315	0.00	29.924 
04:15	55.1	55.1	55.1	74	47.0	2	5	338	0.00	29.930 
04:20	54.7	54.7	54.7	73	46.2	2	5	270	0.00	29.930 
04:25	54.2	54.2	54.2	77	47.1	1	4	315	0.03	29.930 
04:30	53.2	53.2	53.2	81	47.5	1	5	270	0.02	29.929 
04:35	52.5	52.5	52.5	83	47.5	0	1	270	0.02	29.929 
04:40	52.0	52.0	52.0	85	47.6	0	0	---	0.01	29.929 
04:45	51.6	51.6	51.6	86	47.5	0	2	270	0.00	29.923 
04:50	51.4	51.4	51.4	88	48.0	0	0	---	0.01	29.923 
04:55	51.1	51.1	51.1	88	47.7	0	0	---	0.01	29.923 
05:00	51.0	51.0	51.0	89	47.9	0	0	---	0.03	29.911 
05:05	51.0	51.0	51.0	90	48.2	0	0	---	0.02	29.911 
05:10	50.8	50.8	50.8	91	48.3	0	0	---	0.00	29.911 
05:15	50.8	50.8	50.8	91	48.3	0	1	270	0.00	29.901 
05:20	50.7	50.7	50.7	92	48.5	0	2	270	0.01	29.901 
05:25	50.7	50.7	50.7	92	48.5	0	0	---	0.00	29.901 
05:30	50.7	50.7	50.7	92	48.5	0	1	270	0.00	29.900 
05:35	50.7	50.7	50.7	92	48.5	0	1	270	0.00	29.900 
05:40	50.5	50.5	50.5	92	48.3	0	2	270	0.00	29.900 
05:45	50.5	50.5	50.5	93	48.6	0	1	270	0.00	29.901 
05:50	50.5	50.5	50.5	93	48.6	0	3	270	0.01	29.901 
05:55	50.5	50.5	50.5	93	48.6	0	2	248	0.01	29.901 
06:00	50.5	50.5	50.5	93	48.6	1	4	112	0.00	29.884 
06:05	50.5	50.5	50.5	94	48.8	2	6	112	0.01	29.884 
06:10	50.5	50.5	50.5	94	48.8	1	3	90	0.00	29.884 
06:15	50.5	50.5	50.5	94	48.8	0	2	90	0.00	29.887 
06:20	50.5	50.5	50.5	94	48.8	0	3	90	0.00	29.887 
06:25	50.5	50.5	50.5	94	48.8	0	3	270	0.00	29.887 
06:30	50.5	50.5	50.5	94	48.8	1	2	270	0.00	29.901 
06:35	50.5	50.5	50.5	94	48.8	0	0	---	0.00	29.901 
06:40	50.5	50.5	50.5	94	48.8	0	2	270	0.00	29.901 
06:45	50.5	50.5	50.5	94	48.8	0	1	270	0.00	29.901 
06:50	50.5	50.5	50.5	94	48.8	0	1	270	0.00	29.901 
06:55	50.5	50.5	50.5	95	49.1	0	2	270	0.00	29.901 
07:00	50.5	50.5	50.5	95	49.1	0	2	270	0.00	29.902 
07:05	50.5	50.5	50.5	95	49.1	0	1	292	0.00	29.902 
07:10	50.4	50.4	50.4	95	49.0	0	1	292	0.00	29.902 
07:15	50.4	50.4	50.4	95	49.0	0	2	292	0.00	29.904 
07:20	50.5	50.5	50.5	95	49.1	0	2	292	0.00	29.904 
07:25	50.5	50.5	50.5	95	49.1	0	2	292	0.00	29.904 
07:30	50.7	50.7	50.7	95	49.3	0	2	292	0.00	29.908 
07:35	50.7	50.7	50.7	95	49.3	0	1	292	0.00	29.908 
07:40	50.7	50.7	50.7	95	49.3	0	1	292	0.00	29.908 
07:45	50.7	50.7	50.7	95	49.3	0	2	292	0.00	29.911 
07:50	50.7	50.7	50.7	95	49.3	0	1	292	0.00	29.911 
07:55	50.7	50.7	50.7	95	49.3	0	0	---	0.00	29.911 
08:00	50.7	50.7	50.7	95	49.3	0	0	---	0.00	29.921 
08:05	50.8	50.8	50.8	95	49.4	0	0	---	0.00	29.921 
08:10	50.8	50.8	50.8	95	49.4	0	1	292	0.00	29.921 
08:15	50.8	50.8	50.8	95	49.4	0	0	---	0.00	29.932 
08:20	50.8	50.8	50.8	95	49.4	0	0	---	0.00	29.932 
08:25	51.0	51.0	51.0	96	49.9	0	2	292	0.00	29.932 
08:30	51.0	51.0	51.0	96	49.9	0	1	292	0.00	29.936 
08:35	51.1	51.1	51.1	96	50.0	0	0	---	0.00	29.936 
08:40	51.1	51.1	51.1	96	50.0	0	1	292	0.00	29.936 
08:45	51.1	51.1	51.1	96	50.0	0	1	292	0.00	29.942 
08:50	51.3	51.3	51.3	96	50.2	0	1	292	0.00	29.942 
08:55	51.3	51.3	51.3	96	50.2	0	2	292	0.00	29.942 
09:00	51.4	51.4	51.4	96	50.3	0	2	292	0.00	29.953 
09:05	51.4	51.4	51.4	96	50.3	0	1	292	0.00	29.953 
09:10	51.6	51.6	51.6	96	50.5	0	1	292	0.00	29.953 
09:15	51.6	51.6	51.6	96	50.5	0	1	292	0.00	29.965 
09:20	51.6	51.6	51.6	96	50.5	0	1	292	0.00	29.965 
09:25	51.6	51.6	51.6	96	50.5	0	1	292	0.00	29.965 
09:30	51.7	51.7	51.7	96	50.6	0	1	292	0.00	29.967 
09:35	51.9	51.9	51.9	96	50.8	0	2	292	0.00	29.967 
09:40	52.0	52.0	52.0	96	50.9	0	1	292	0.00	29.967 
09:45	52.2	52.2	52.2	96	51.1	0	1	292	0.00	29.968 
09:50	52.2	52.2	52.2	96	51.1	0	1	292	0.00	29.968 
09:55	52.3	52.3	52.3	96	51.2	0	2	292	0.00	29.968 
10:00	52.6	52.6	52.6	96	51.5	0	3	292	0.00	29.974 
10:05	52.8	52.8	52.8	96	51.7	0	2	292	0.00	29.974 
10:10	52.8	52.8	52.8	96	51.7	1	2	292	0.00	29.974 
10:15	52.8	52.8	52.8	96	51.7	2	4	292	0.00	29.981 
10:20	52.9	52.9	52.9	96	51.8	1	3	315	0.00	29.981 
10:25	52.8	52.8	52.8	96	51.7	1	4	292	0.00	29.981 
10:30	52.8	52.8	52.8	96	51.7	1	5	270	0.00	29.982 
10:35	52.6	52.6	52.6	95	51.2	1	3	270	0.00	29.982 
10:40	52.6	52.6	52.6	95	51.2	1	3	315	0.00	29.982 
10:45	52.5	52.5	52.5	94	50.8	2	5	270	0.00	29.988 
10:50	52.8	52.8	52.8	94	51.1	1	4	292	0.00	29.988 
10:55	52.9	52.9	52.9	93	50.9	2	4	292	0.00	29.988 
11:00	53.1	53.1	53.1	92	50.8	1	4	338	0.00	29.996 
11:05	53.6	53.6	53.6	92	51.3	1	3	338	0.00	29.996 
11:10	54.1	54.1	54.1	90	51.2	1	3	270	0.00	29.996 
11:15	54.2	54.2	54.2	88	50.7	2	6	270	0.00	29.999 
11:20	54.5	54.5	54.5	86	50.4	1	4	270	0.00	29.999 
11:25	54.5	54.5	54.5	82	49.1	2	5	292	0.00	29.999 
11:30	54.7	54.7	54.7	78	48.0	2	5	270	0.00	30.003 
11:35	55.1	55.1	55.1	77	48.0	2	5	0	0.00	30.003 
11:40	55.4	55.4	55.4	75	47.6	2	5	315	0.00	30.003 
11:45	56.0	56.0	56.0	74	47.8	1	4	315	0.00	30.011 
11:50	56.2	56.2	56.2	71	46.9	1	3	315	0.00	30.011 
11:55	56.5	56.5	56.5	71	47.2	1	3	315	0.00	30.011 
12:00	56.6	56.6	56.6	63	44.2	1	3	315	0.00	30.016 
12:05	56.7	56.7	56.7	60	43.0	2	5	315	0.00	30.016 
12:10	56.9	56.9	56.9	62	44.0	1	4	315	0.00	30.016 
12:15	57.0	57.0	57.0	63	44.5	2	4	338	0.00	30.020 
12:20	57.0	57.0	57.0	62	44.1	1	4	315	0.00	30.020 
12:25	57.2	57.2	57.2	59	43.0	1	4	338	0.00	30.020 
12:30	57.5	57.5	57.5	57	42.4	1	3	315	0.00	30.028 
12:35	57.8	57.8	57.8	53	40.8	2	4	270	0.00	30.028 
12:40	57.6	57.6	57.6	53	40.6	2	7	338	0.00	30.028 
12:45	57.8	57.8	57.8	52	40.3	1	5	292	0.00	30.031 
12:50	58.1	58.1	58.1	50	39.6	2	5	338	0.00	30.031 
12:55	58.3	58.3	58.3	48	38.7	2	4	292	0.00	30.031 
13:00	58.3	58.3	58.3	48	38.7	2	5	292	0.00	30.036 
13:05	58.4	58.4	58.4	48	38.8	1	5	338	0.00	30.036 
13:10	58.3	58.3	58.3	47	38.2	2	5	315	0.00	30.036 
13:15	58.4	58.4	58.4	49	39.3	2	5	0	0.00	30.034 
13:20	58.6	58.6	58.6	45	37.3	2	7	270	0.00	30.034 
13:25	58.4	58.4	58.4	46	37.7	2	5	22	0.00	30.034 
13:30	58.6	58.6	58.6	48	39.0	2	5	315	0.00	30.038 
13:35	58.7	58.7	58.7	47	38.5	3	6	0	0.00	30.038 
13:40	58.6	58.6	58.6	45	37.3	3	6	315	0.00	30.038 
13:45	58.7	58.7	58.7	46	38.0	1	4	315	0.00	30.040 
13:50	58.7	58.7	58.7	45	37.4	1	5	292	0.00	30.040 
13:55	58.7	58.7	58.7	42	35.7	3	6	292	0.00	30.040 
14:00	58.7	58.7	58.7	43	36.3	2	6	338	0.00	30.043 
14:05	58.9	58.9	58.9	43	36.4	2	5	292	0.00	30.043 
14:10	59.2	59.2	59.2	44	37.3	1	4	315	0.00	30.043 
14:15	59.6	59.6	59.6	43	37.1	2	7	292	0.00	30.040 
14:20	59.5	59.5	59.5	38	33.9	3	6	315	0.00	30.040 
14:25	59.5	59.5	59.5	40	35.2	2	5	338	0.00	30.040 
14:30	59.9	59.9	59.9	41	36.1	1	5	338	0.00	30.040 
14:35	60.2	60.2	60.2	40	35.8	2	7	270	0.00	30.040 
14:40	60.2	60.2	60.2	39	35.2	1	4	270	0.00	30.040 
14:45	60.1	60.1	60.1	40	35.7	2	6	292	0.00	30.039 
14:50	60.2	60.2	60.2	41	36.4	1	3	315	0.00	30.039 
14:55	60.4	60.4	60.4	40	36.0	2	6	292	0.00	30.039 
15:00	60.2	60.2	60.2	38	34.5	3	7	292	0.00	30.041 
15:05	60.1	60.1	60.1	39	35.1	2	7	270	0.00	30.041 
15:10	60.1	60.1	60.1	40	35.7	1	5	248	0.00	30.041 
15:15	60.2	60.2	60.2	41	36.4	2	6	292	0.00	30.041 
15:20	60.4	60.4	60.4	40	36.0	2	5	292	0.00	30.041 
15:25	60.5	60.5	60.5	42	37.3	1	4	292	0.00	30.041 
15:30	60.7	60.7	60.7	42	37.5	2	4	270	0.00	30.042 
15:35	60.7	60.7	60.7	41	36.9	2	5	270	0.00	30.042 
15:40	60.9	60.9	60.9	42	37.7	3	6	270	0.00	30.042 
15:45	60.9	60.9	60.9	40	36.4	3	9	270	0.00	30.045 
15:50	60.9	60.9	60.9	41	37.0	3	7	292	0.00	30.045 
15:55	61.0	61.0	61.0	43	38.3	2	6	292	0.00	30.045 
16:00	61.0	61.0	61.0	40	36.5	2	4	315	0.00	30.045 
16:05	61.0	61.0	61.0	39	35.9	2	4	315	0.00	30.045 
16:10	61.0	61.0	61.0	39	35.9	2	9	292	0.00	30.045 
16:15	60.9	60.9	60.9	39	35.8	2	5	292	0.00	30.048 
16:20	61.0	61.0	61.0	39	35.9	2	7	315	0.00	30.048 
16:25	60.9	60.9	60.9	39	35.8	1	4	315	0.00	30.048 
16:30	60.9	60.9	60.9	38	35.1	2	7	315	0.00	30.055 
16:35	60.9	60.9	60.9	39	35.8	2	7	270	0.00	30.055 
16:40	60.9	60.9	60.9	37	34.5	2	5	338	0.00	30.055 
16:45	60.9	60.9	60.9	38	35.1	2	5	270	0.00	30.059 
16:50	60.7	60.7	60.7	37	34.3	2	4	292	0.00	30.059 
16:55	60.5	60.5	60.5	38	34.8	2	4	292	0.00	30.059 
17:00	60.5	60.5	60.5	36	33.4	2	6	315	0.00	30.065 
17:05	60.5	60.5	60.5	35	32.7	2	5	338	0.00	30.065 
17:10	60.4	60.4	60.4	34	31.9	2	4	315	0.00	30.065 
17:15	60.4	60.4	60.4	36	33.3	2	4	315	0.00	30.072 
17:20	60.4	60.4	60.4	36	33.3	2	6	270	0.00	30.072 
17:25	60.2	60.2	60.2	36	33.1	2	6	292	0.00	30.072 
17:30	60.1	60.1	60.1	36	33.1	2	5	292	0.00	30.077 
17:35	59.9	59.9	59.9	37	33.6	2	6	270	0.00	30.077 
17:40	59.9	59.9	59.9	39	34.9	1	4	270	0.00	30.077 
17:45	59.8	59.8	59.8	39	34.8	2	4	270	0.00	30.078 
17:50	59.6	59.6	59.6	39	34.6	1	3	292	0.00	30.078 
17:55	59.5	59.5	59.5	38	33.9	1	4	292	0.00	30.078 
18:00	59.3	59.3	59.3	38	33.7	1	3	315	0.00	30.082 
18:05	59.2	59.2	59.2	39	34.3	1	4	270	0.00	30.082 
18:10	59.0	59.0	59.0	39	34.1	1	2	270	0.00	30.082 
18:15	58.7	58.7	58.7	39	33.8	1	3	270	0.00	30.087 
18:20	58.6	58.6	58.6	40	34.4	0	3	270	0.00	30.087 
18:25	58.3	58.3	58.3	40	34.1	1	2	270	0.00	30.087 
18:30	58.0	58.0	58.0	40	33.8	1	4	270	0.00	30.093 
18:35	57.6	57.6	57.6	41	34.1	0	1	270	0.00	30.093 
18:40	57.3	57.3	57.3	40	33.2	1	3	270	0.00	30.093 
18:45	57.0	57.0	57.0	41	33.5	0	1	270	0.00	30.097 
18:50	56.7	56.7	56.7	41	33.3	0	2	270	0.00	30.097 
18:55	56.5	56.5	56.5	42	33.7	0	1	270	0.00	30.097 
19:00	56.2	56.2	56.2	42	33.4	0	1	270	0.00	30.110 
19:05	55.9	55.9	55.9	42	33.1	0	1	270	0.00	30.110 
19:10	55.7	55.7	55.7	43	33.6	0	1	270	0.00	30.110 
19:15	55.3	55.3	55.3	43	33.2	0	1	270	0.00	30.112 
19:20	55.0	55.0	55.0	43	32.9	0	1	270	0.00	30.112 
19:25	54.7	54.7	54.7	44	33.2	0	1	270	0.00	30.112 
19:30	54.4	54.4	54.4	46	34.1	0	0	---	0.00	30.119 
19:35	53.9	53.9	53.9	46	33.6	0	0	---	0.00	30.119 
19:40	53.3	53.3	53.3	48	34.1	0	0	---	0.00	30.119 
19:45	52.8	52.8	52.8	48	33.7	0	0	---	0.00	30.127 
19:50	52.3	52.3	52.3	51	34.7	0	0	---	0.00	30.127 
19:55	51.6	51.6	51.6	52	34.6	0	0	---	0.00	30.127 
20:00	51.0	51.0	51.0	54	34.9	0	0	---	0.00	30.131 
20:05	50.2	50.2	50.2	55	34.7	0	0	---	0.00	30.131 
20:10	49.6	49.6	49.6	57	35.0	0	0	---	0.00	30.131 
20:15	49.1	49.1	49.1	58	35.0	0	0	---	0.00	30.135 
20:20	48.6	48.6	48.6	60	35.3	0	0	---	0.00	30.135 
20:25	48.3	48.3	48.3	61	35.5	0	0	---	0.00	30.135 
20:30	47.9	47.9	47.9	62	35.5	0	0	---	0.00	30.138 
20:35	47.6	47.6	47.6	62	35.2	0	0	---	0.00	30.138 
20:40	47.3	47.3	47.3	63	35.4	0	0	---	0.00	30.138 
20:45	47.0	47.0	47.0	64	35.5	0	0	---	0.00	30.145 
20:50	46.7	46.7	46.7	65	35.6	0	0	---	0.00	30.145 
20:55	46.4	46.4	46.4	66	35.7	0	0	---	0.00	30.145 
21:00	46.0	46.0	46.0	66	35.3	0	0	---	0.00	30.149 
21:05	45.7	45.7	45.7	67	35.4	0	0	---	0.00	30.149 
21:10	45.4	45.4	45.4	69	35.8	0	0	---	0.00	30.149 
21:15	45.1	45.1	45.1	70	35.9	0	0	---	0.00	30.144 
21:20	44.8	44.8	44.8	71	36.0	0	0	---	0.00	30.144 
21:25	44.5	44.5	44.5	72	36.0	0	0	---	0.00	30.144 
21:30	44.2	44.2	44.2	73	36.1	0	0	---	0.00	30.145 
21:35	43.9	43.9	43.9	74	36.2	0	0	---	0.00	30.145 
21:40	43.8	43.8	43.8	75	36.4	0	0	---	0.00	30.145 
21:45	43.5	43.5	43.5	75	36.1	0	0	---	0.00	30.150 
21:50	43.2	43.2	43.2	76	36.2	0	0	---	0.00	30.150 
21:55	43.1	43.1	43.1	76	36.1	0	0	---	0.00	30.150 
22:00	42.9	42.9	42.9	77	36.2	0	0	---	0.00	30.153 
22:05	42.8	42.8	42.8	78	36.4	0	0	---	0.00	30.153 
22:10	42.6	42.6	42.6	79	36.6	0	0	---	0.00	30.153 
22:15	42.5	42.5	42.5	79	36.5	0	0	---	0.00	30.152 
22:20	42.3	42.3	42.3	80	36.6	0	0	---	0.00	30.152 
22:25	42.3	42.3	42.3	80	36.6	0	0	---	0.00	30.152 
22:30	42.2	42.2	42.2	81	36.8	0	0	---	0.00	30.160 
22:35	41.9	41.9	41.9	81	36.5	0	0	---	0.00	30.160 
22:40	41.8	41.8	41.8	81	36.4	0	0	---	0.00	30.160 
22:45	41.6	41.6	41.6	82	36.5	0	0	---	0.00	30.159 
22:50	41.5	41.5	41.5	82	36.4	0	0	---	0.00	30.159 
22:55	41.5	41.5	41.5	83	36.7	0	0	---	0.00	30.159 
23:00	41.3	41.3	41.3	83	36.5	0	0	---	0.00	30.161 
23:05	41.2	41.2	41.2	83	36.4	0	0	---	0.00	30.161 
23:10	41.1	41.1	41.1	83	36.3	0	0	---	0.00	30.161 
23:15	40.9	40.9	40.9	84	36.4	0	0	---	0.00	30.154 
23:20	40.8	40.8	40.8	84	36.3	0	0	---	0.00	30.154 
23:25	40.8	40.8	40.8	84	36.3	0	0	---	0.00	30.154 
23:30	40.6	40.6	40.6	84	36.2	0	0	---	0.00	30.154 
23:35	40.5	40.5	40.5	84	36.1	0	0	---	0.00	30.154 
23:40	40.5	40.5	40.5	85	36.4	0	0	---	0.00	30.154 
23:45	40.5	40.5	40.5	85	36.4	0	0	---	0.00	30.161 
23:50	40.3	40.3	40.3	85	36.2	0	0	---	0.00	30.161 
23:55	40.3	40.3	40.3	85	36.2	0	0	---	0.00	30.161 

CoCoRaHS
IN-AL-39
A2 Web Hosting
Creative Commons License
GoDaddy
search engine by freefind advanced

loaded 2018-11-15 16:33:37 • last modified 2010-11-18 10:43:29
Privacy PolicyDisclaimer
• wx.awcolley.com is powered by PmWiki v.2002016 •
• all content (unless otherwise noted) © 2018 A W Colley